YGTH

Details ICAO YGTH (GFF)
Name Griffith
Region Australia
Timezone Australia/Sydney (UTC+11.0)
Plans Departing 2
Arriving 4
Stats Elevation 439 ft / 134 m (AMSL)
Location -34.251535° 146.064658°
Runways 2
Magnetic Variation 10.833° E
Sunrise 2017-12-12 18:58:56 UTC / 2017-12-13 05:58:56 Local
Sunset 2017-12-13 09:23:25 UTC / 2017-12-13 20:23:25 Local
Advertisement - Login to hide

Runways

ID Width Length Bearing (true) Bearing (mag) Surface Threshold Offset Overrun Length
06 98 ft / 30 m 4,925 ft / 1,501 m 65.70° 54.87° Asphalt 0 ft / 0 m 0 ft / 0 m
18 299 ft / 91 m 2,363 ft / 720 m 8.20° 357.37° Dirt 0 ft / 0 m 0 ft / 0 m
24 98 ft / 30 m 4,925 ft / 1,501 m 245.70° 234.87° Asphalt 0 ft / 0 m 0 ft / 0 m
36 299 ft / 91 m 2,363 ft / 720 m 188.20° 177.37° Dirt 0 ft / 0 m 0 ft / 0 m

Map

Weather


0- 5 10 15 20 25 30 35+ Temperature / ° C

Clouds and Precipitation
Forecast for 2017-12-13 06:00 UTC. Updated an hour ago

Ground ~20,000 ft ~40,000 ft Winds

METAR

YGTH 130100Z AUTO 36009KT 9999 // NCD 36/04 Q1010

TAF

Not found

Frequencies

Unicom 125.10 MHz ACTIVATE LIGHTS ONLY MULT
Tower 126.00 MHz MELBOURNE CNTR
Unicom 126.55 MHz GRIFFITH MULT
Warning: Do not use this data for real-world aviation or navigation. No guarantee of current accuracy is given.